Time;durP1;ratioP1;P1;durP2;ratioP2;P2;SDS_P1;SDS_P2;PMS_P1;PMS_P2;Temp;Humidity;BMP_temperature;BMP_pressure;BME280_temperature;BME280_humidity;BME280_pressure;Samples;Min_cycle;Max_cycle;Signal;HPM_P1;HPM_P2
2021/09/08 00:02:25;;;;;;;9.93;3.30;;;;;;;12.00;73.41;100204.94;5053188;28;20041;-79
2021/09/08 00:04:51;;;;;;;7.07;3.67;;;;;;;12.02;72.97;100200.34;5036399;28;20045;-76
2021/09/08 00:07:17;;;;;;;9.63;3.67;;;;;;;11.99;72.90;100197.94;5053575;28;20044;-79
2021/09/08 00:09:43;;;;;;;8.18;3.40;;;;;;;11.96;73.22;100198.16;5052368;28;20045;-79
2021/09/08 00:12:09;;;;;;;8.05;3.33;;;;;;;11.94;73.13;100194.78;5054035;28;20446;-82
2021/09/08 00:14:34;;;;;;;7.43;3.42;;;;;;;11.94;73.01;100200.06;5053062;28;20045;-83
2021/09/08 00:17:00;;;;;;;6.40;3.08;;;;;;;11.94;73.20;100200.06;5053789;28;20040;-78
2021/09/08 00:19:26;;;;;;;10.90;3.15;;;;;;;11.92;72.69;100201.97;5053342;28;20041;-81
2021/09/08 00:21:53;;;;;;;7.25;2.95;;;;;;;11.89;72.76;100199.56;5085907;28;20121;-80
2021/09/08 00:24:18;;;;;;;6.18;3.25;;;;;;;11.92;73.15;100196.69;5052546;28;20156;-78
2021/09/08 00:26:44;;;;;;;6.43;2.92;;;;;;;11.95;72.83;100199.09;5052472;28;20045;-81
2021/09/08 00:29:10;;;;;;;6.45;3.20;;;;;;;11.98;72.69;100201.56;5086055;28;20075;-78
2021/09/08 00:31:36;;;;;;;6.28;2.90;;;;;;;12.00;72.53;100197.00;5085442;28;20048;-80
2021/09/08 00:34:03;;;;;;;7.25;3.40;;;;;;;11.97;72.02;100202.50;5051899;28;20041;-80
2021/09/08 00:36:29;;;;;;;12.75;3.42;;;;;;;11.94;72.67;100190.28;5034869;28;20043;-77
2021/09/08 00:38:56;;;;;;;6.53;3.03;;;;;;;11.95;72.62;100191.13;5052683;28;20053;-79
2021/09/08 00:41:23;;;;;;;6.57;2.83;;;;;;;11.93;72.55;100187.78;5054642;28;20068;-79
2021/09/08 00:43:49;;;;;;;6.57;3.00;;;;;;;11.93;72.90;100182.47;5073098;28;20135;-80
2021/09/08 00:46:16;;;;;;;5.93;3.08;;;;;;;11.90;72.70;100193.28;5038127;28;20044;-80
2021/09/08 00:48:46;;;;;;;6.70;3.50;;;;;;;11.91;72.84;100194.97;5054753;28;20143;-78
2021/09/08 00:51:12;;;;;;;8.70;3.35;;;;;;;11.92;72.50;100191.38;5082276;28;20051;-79
2021/09/08 00:53:38;;;;;;;7.22;2.92;;;;;;;11.90;72.09;100185.31;5092425;28;20513;-79
2021/09/08 00:56:07;;;;;;;6.07;3.42;;;;;;;11.95;72.44;100185.81;5093162;28;20043;-79
2021/09/08 00:58:34;;;;;;;9.55;4.18;;;;;;;11.92;72.34;100186.06;5092522;28;20201;-78
2021/09/08 01:01:01;;;;;;;6.95;3.90;;;;;;;11.86;72.72;100181.22;5074777;28;20451;-79
2021/09/08 01:03:28;;;;;;;8.10;3.80;;;;;;;11.84;72.60;100177.84;5092834;28;20032;-79
2021/09/08 01:05:56;;;;;;;11.00;4.30;;;;;;;11.80;72.87;100183.38;5057748;28;20271;-80
2021/09/08 01:08:23;;;;;;;8.55;3.65;;;;;;;11.76;72.92;100187.22;5074167;28;20092;-77
2021/09/08 01:10:49;;;;;;;8.15;3.50;;;;;;;11.73;73.22;100187.44;5057689;28;20047;-78
2021/09/08 01:13:16;;;;;;;7.00;3.30;;;;;;;11.64;73.07;100182.81;5057930;28;20040;-79
2021/09/08 01:16:05;;;;;;;8.45;3.45;;;;;;;11.57;73.31;100176.28;5074330;28;20172;-77
2021/09/08 01:18:31;;;;;;;8.65;3.42;;;;;;;11.55;73.42;100179.03;5074981;28;20044;-77
2021/09/08 01:20:58;;;;;;;11.48;3.78;;;;;;;11.54;73.71;100176.50;5073994;28;20056;-78
2021/09/08 01:23:24;;;;;;;9.82;3.50;;;;;;;11.52;73.22;100173.13;5073996;28;20044;-78
2021/09/08 01:25:50;;;;;;;7.50;3.58;;;;;;;11.52;73.21;100179.25;5074183;28;20047;-79
2021/09/08 01:28:16;;;;;;;16.90;6.40;;;;;;;11.53;73.45;100186.25;5057016;28;20166;-79
2021/09/08 01:30:42;;;;;;;9.88;4.40;;;;;;;11.54;73.67;100177.34;5073772;28;20063;-79
2021/09/08 01:33:10;;;;;;;10.93;4.93;;;;;;;11.51;73.91;100177.56;5074402;28;20047;-78
2021/09/08 01:35:36;;;;;;;15.03;7.37;;;;;;;11.47;73.79;100178.75;5092033;28;20123;-79
2021/09/08 01:38:03;;;;;;;10.73;3.42;;;;;;;11.39;74.11;100178.44;5074040;28;20051;-75
2021/09/08 01:40:28;;;;;;;9.02;4.30;;;;;;;11.33;74.21;100182.41;5091248;28;20110;-76
2021/09/08 01:42:54;;;;;;;8.45;3.53;;;;;;;11.32;73.78;100178.06;5091675;28;20746;-78
2021/09/08 01:45:20;;;;;;;6.60;3.47;;;;;;;11.31;74.35;100182.53;5091562;28;20036;-78
2021/09/08 01:47:46;;;;;;;8.07;3.53;;;;;;;11.29;74.53;100172.97;5091674;28;20036;-77
2021/09/08 01:50:12;;;;;;;5.85;3.22;;;;;;;11.32;74.33;100178.06;5073762;28;20076;-76
2021/09/08 01:52:38;;;;;;;8.35;3.60;;;;;;;11.25;74.75;100180.31;5073650;28;20130;-78
2021/09/08 01:55:06;;;;;;;11.43;3.45;;;;;;;11.21;74.92;100184.13;5091560;28;20133;-77
2021/09/08 01:57:32;;;;;;;6.97;3.03;;;;;;;11.22;74.45;100182.34;5091430;28;20055;-77
2021/09/08 01:59:58;;;;;;;10.45;3.63;;;;;;;11.22;74.59;100188.47;5073353;28;20050;-77
2021/09/08 02:02:24;;;;;;;9.88;3.50;;;;;;;11.17;75.05;100186.13;5088197;28;20048;-81
2021/09/08 02:04:50;;;;;;;6.88;3.05;;;;;;;11.17;74.99;100180.84;5037868;28;20068;-81
2021/09/08 02:07:16;;;;;;;9.15;3.63;;;;;;;11.17;74.87;100178.19;5070654;28;20683;-80
2021/09/08 02:09:42;;;;;;;8.25;3.70;;;;;;;11.16;75.07;100173.88;5069389;28;20487;-80
2021/09/08 02:12:08;;;;;;;7.30;3.50;;;;;;;11.20;74.90;100178.94;5053369;28;20043;-81
2021/09/08 02:14:34;;;;;;;6.88;3.05;;;;;;;11.19;74.87;100178.09;5053395;28;20064;-80
2021/09/08 02:17:00;;;;;;;7.28;3.70;;;;;;;11.19;74.51;100177.25;5053314;28;20048;-79
2021/09/08 02:19:26;;;;;;;7.20;3.50;;;;;;;11.15;75.01;100172.19;5053349;28;20040;-80
2021/09/08 02:21:52;;;;;;;7.82;3.70;;;;;;;11.12;75.03;100172.38;5069847;28;20547;-79
2021/09/08 02:24:18;;;;;;;5.68;3.03;;;;;;;11.13;74.82;100168.78;5070945;28;20044;-79
2021/09/08 02:26:44;;;;;;;12.32;4.90;;;;;;;11.09;74.81;100167.31;5052943;28;20050;-79
2021/09/08 02:29:11;;;;;;;6.97;3.25;;;;;;;11.08;75.04;100172.69;5071719;28;20049;-80
2021/09/08 02:31:37;;;;;;;8.45;4.15;;;;;;;11.07;74.98;100165.75;5053326;28;20048;-79
2021/09/08 02:34:03;;;;;;;7.47;3.38;;;;;;;11.07;74.68;100166.56;5036773;28;20488;-79
2021/09/08 02:36:29;;;;;;;7.72;3.67;;;;;;;11.02;75.38;100159.94;5069418;28;20051;-77
2021/09/08 02:38:54;;;;;;;7.57;3.33;;;;;;;10.99;74.96;100160.97;5070756;28;20048;-79
2021/09/08 02:41:22;;;;;;;7.28;3.50;;;;;;;10.95;75.45;100154.22;5070900;28;20041;-78
2021/09/08 02:43:48;;;;;;;9.15;3.80;;;;;;;10.99;74.93;100156.53;5057060;28;20048;-79
2021/09/08 02:46:14;;;;;;;7.82;3.47;;;;;;;10.96;75.28;100150.63;5057224;28;20047;-79
2021/09/08 02:48:39;;;;;;;8.30;3.90;;;;;;;10.97;75.02;100158.44;5056568;28;20044;-78
2021/09/08 02:51:06;;;;;;;11.38;4.10;;;;;;;10.97;75.33;100155.78;5074796;28;20044;-79
2021/09/08 02:53:33;;;;;;;12.90;4.03;;;;;;;10.96;75.28;100150.63;5074567;28;20056;-78
2021/09/08 02:56:00;;;;;;;10.18;3.75;;;;;;;10.99;75.03;100150.38;5074478;28;20040;-80
2021/09/08 02:58:27;;;;;;;8.18;3.45;;;;;;;10.96;75.08;100145.31;5024252;28;20040;-81
2021/09/08 03:00:53;;;;;;;8.68;4.15;;;;;;;10.94;75.17;100147.22;5056984;28;20045;-78
2021/09/08 03:03:19;;;;;;;7.75;3.75;;;;;;;10.94;75.20;100152.50;5039799;28;20052;-80
2021/09/08 03:05:46;;;;;;;8.55;3.88;;;;;;;10.88;75.28;100147.66;5056318;28;20074;-79
2021/09/08 03:08:12;;;;;;;8.43;3.38;;;;;;;10.89;75.40;100149.34;5083259;28;20127;-79
2021/09/08 03:10:38;;;;;;;11.75;3.90;;;;;;;10.86;75.20;100145.13;5094263;28;20055;-77
2021/09/08 03:13:05;;;;;;;8.38;3.95;;;;;;;10.87;75.39;100140.69;5075338;28;20443;-77
2021/09/08 03:15:31;;;;;;;18.45;8.50;;;;;;;10.85;75.20;100138.13;5094679;28;20075;-76
2021/09/08 03:17:57;;;;;;;10.13;4.43;;;;;;;10.84;75.58;100142.59;5075360;28;20480;-77
2021/09/08 03:20:23;;;;;;;10.40;4.15;;;;;;;10.87;75.52;100143.34;5094608;28;20047;-77
2021/09/08 03:22:49;;;;;;;10.20;3.67;;;;;;;10.85;75.34;100143.44;5076578;28;20048;-77
2021/09/08 03:25:15;;;;;;;9.75;3.97;;;;;;;10.83;75.24;100146.19;5094458;28;20075;-80
2021/09/08 03:27:41;;;;;;;10.80;4.00;;;;;;;10.89;75.15;100144.94;5095104;28;20043;-84
2021/09/08 03:30:08;;;;;;;15.73;4.75;;;;;;;10.83;75.73;100135.59;5078198;28;20040;-86
2021/09/08 03:32:34;;;;;;;12.82;4.95;;;;;;;10.90;75.28;100140.47;5020633;28;20053;-81
2021/09/08 03:35:00;;;;;;;15.07;5.15;;;;;;;10.92;74.95;100138.56;5052503;28;20059;-80
2021/09/08 03:37:26;;;;;;;12.23;4.53;;;;;;;10.94;75.06;100141.94;5036498;28;20055;-81
2021/09/08 03:39:52;;;;;;;11.65;4.60;;;;;;;10.94;75.22;100142.78;5053303;28;20045;-83
2021/09/08 03:42:20;;;;;;;9.43;4.32;;;;;;;10.99;75.20;100135.38;5051849;28;20163;-76
2021/09/08 03:44:46;;;;;;;;;;;;;;;10.97;75.05;100147.84;5018938;28;20449;-78
2021/09/08 03:47:12;;;;;;;10.93;4.75;;;;;;;10.98;75.03;100133.66;5053788;28;19920;-79
2021/09/08 03:49:38;;;;;;;11.95;4.68;;;;;;;10.98;75.11;100140.78;5052285;28;20040;-79
2021/09/08 03:52:04;;;;;;;12.65;5.00;;;;;;;11.05;74.80;100138.53;5051841;28;20598;-79
2021/09/08 03:54:29;;;;;;;8.60;4.30;;;;;;;11.04;74.79;100137.69;5034951;28;20041;-82
2021/09/08 03:56:55;;;;;;;10.32;4.05;;;;;;;11.06;74.16;100135.75;5052189;28;20059;-81
2021/09/08 03:59:22;;;;;;;9.02;4.90;;;;;;;11.10;74.25;100139.03;5051433;28;20044;-78
2021/09/08 04:01:49;;;;;;;156.07;53.55;;;;;;;11.13;74.00;100142.31;5034345;28;20391;-78
2021/09/08 04:04:16;;;;;;;10.15;4.55;;;;;;;11.17;73.63;100135.84;5035118;28;20057;-80
2021/09/08 04:06:44;;;;;;;11.93;4.97;;;;;;;11.22;73.61;100134.69;5053755;28;20040;-81
2021/09/08 04:09:10;;;;;;;11.38;4.07;;;;;;;11.25;73.72;100145.03;5006823;28;20040;-82
2021/09/08 04:11:35;;;;;;;20.02;6.97;;;;;;;11.29;73.35;100149.13;5055787;28;20033;-81
2021/09/08 04:14:02;;;;;;;9.95;4.25;;;;;;;11.34;73.17;100133.78;5072665;28;20032;-82
2021/09/08 04:16:27;;;;;;;12.27;4.50;;;;;;;11.46;72.90;100137.31;5074497;28;20139;-80
2021/09/08 04:18:53;;;;;;;13.95;4.53;;;;;;;11.52;72.56;100142.16;5055208;28;20201;-81
2021/09/08 04:21:19;;;;;;;15.65;5.50;;;;;;;11.61;71.99;100135.34;5072561;28;20094;-82
2021/09/08 04:23:45;;;;;;;10.98;4.07;;;;;;;11.71;71.69;100140.81;5072319;28;20093;-79
2021/09/08 04:26:11;;;;;;;11.45;4.57;;;;;;;11.76;71.25;100146.59;5073436;28;20359;-79
2021/09/08 04:28:37;;;;;;;11.73;4.07;;;;;;;11.77;71.53;100143.84;5073152;28;20137;-79
2021/09/08 04:31:02;;;;;;;10.63;4.55;;;;;;;11.80;71.09;100148.94;5088749;28;20037;-81
2021/09/08 04:33:28;;;;;;;8.65;4.03;;;;;;;11.79;71.31;100139.28;5071248;28;20036;-80
2021/09/08 04:35:57;;;;;;;11.40;4.35;;;;;;;11.83;70.95;100150.50;5072068;28;20067;-80
2021/09/08 04:38:24;;;;;;;15.63;5.40;;;;;;;11.89;70.79;100149.22;5056016;28;20072;-80
2021/09/08 04:40:50;;;;;;;11.00;4.53;;;;;;;12.09;70.20;100145.91;5071824;28;20037;-80
2021/09/08 04:43:16;;;;;;;15.57;4.65;;;;;;;12.23;69.63;100136.91;5090771;28;20055;-84
2021/09/08 04:45:42;;;;;;;6.40;3.30;;;;;;;12.32;69.25;100137.16;5042815;28;20130;-80
2021/09/08 04:48:08;;;;;;;15.48;5.60;;;;;;;12.39;68.90;100130.44;5042949;28;20046;-78
2021/09/08 04:50:35;;;;;;;12.80;6.53;;;;;;;12.46;68.68;100131.63;5059291;28;20058;-79
2021/09/08 04:53:01;;;;;;;14.90;5.03;;;;;;;12.45;68.73;100133.44;5075859;28;20109;-80
2021/09/08 04:55:27;;;;;;;12.45;4.03;;;;;;;12.60;67.88;100133.22;5058255;28;20484;-81
2021/09/08 04:57:53;;;;;;;17.15;7.22;;;;;;;12.68;67.73;100130.78;5074583;28;20101;-80
2021/09/08 05:00:19;;;;;;;13.13;3.85;;;;;;;12.64;67.65;100131.19;5058195;28;20454;-81
2021/09/08 05:02:44;;;;;;;13.18;4.63;;;;;;;12.71;67.68;100133.22;5062030;28;20101;-81
2021/09/08 05:05:11;;;;;;;9.20;4.00;;;;;;;12.71;67.20;100135.00;5058709;28;20427;-80
2021/09/08 05:07:37;;;;;;;16.17;4.60;;;;;;;12.64;67.33;100129.34;5089878;28;20052;-81
2021/09/08 05:10:03;;;;;;;68.68;26.00;;;;;;;12.75;67.17;100132.00;5088988;28;20043;-80
2021/09/08 05:12:30;;;;;;;25.63;9.02;;;;;;;12.64;67.38;100129.34;5073948;28;20043;-79
2021/09/08 05:14:55;;;;;;;46.80;18.98;;;;;;;12.68;67.06;100130.78;5093604;28;20062;-79
2021/09/08 05:17:21;;;;;;;21.38;8.52;;;;;;;12.73;67.29;100127.78;5092122;28;20100;-80
2021/09/08 05:19:56;;;;;;;9.15;4.30;;;;;;;12.88;66.91;100126.56;5093639;28;20081;-81
2021/09/08 05:22:22;;;;;;;16.00;5.88;;;;;;;12.98;66.33;100121.34;5059020;28;20059;-79
2021/09/08 05:24:48;;;;;;;11.98;4.20;;;;;;;12.85;66.61;100125.97;5076550;28;20048;-80
2021/09/08 05:27:15;;;;;;;16.55;3.90;;;;;;;12.93;65.94;100124.41;5093942;28;20381;-86
2021/09/08 05:29:42;;;;;;;9.82;4.00;;;;;;;13.17;65.96;100125.19;5059176;28;20416;-81
2021/09/08 05:32:09;;;;;;;9.55;3.85;;;;;;;13.37;65.23;100116.50;5061596;28;20488;-80
2021/09/08 05:34:35;;;;;;;11.65;3.70;;;;;;;13.38;64.57;100126.16;5094055;28;20089;-81
2021/09/08 05:37:01;;;;;;;13.32;4.18;;;;;;;13.39;64.67;100108.38;5074260;28;20051;-79
2021/09/08 05:39:27;;;;;;;9.05;3.83;;;;;;;13.54;64.31;100122.22;5075566;28;20031;-79
2021/09/08 05:41:53;;;;;;;10.20;4.03;;;;;;;13.67;63.53;100111.41;5094568;28;20067;-76
2021/09/08 05:44:19;;;;;;;13.65;4.07;;;;;;;13.98;62.58;100120.34;5093730;28;20044;-78
2021/09/08 05:46:45;;;;;;;12.00;3.92;;;;;;;14.38;61.75;100110.75;5075697;28;20117;-81
2021/09/08 05:49:14;;;;;;;8.73;5.30;;;;;;;14.91;60.19;100107.09;5093388;28;20486;-82
2021/09/08 05:51:41;;;;;;;10.32;4.05;;;;;;;15.30;58.77;100112.50;5078820;28;20501;-85
2021/09/08 05:54:10;;;;;;;14.55;4.70;;;;;;;15.84;57.17;100114.81;5059408;28;20063;-82
2021/09/08 05:56:37;;;;;;;14.20;4.15;;;;;;;16.26;55.58;100109.13;5077408;28;20067;-81
2021/09/08 05:59:03;;;;;;;13.90;4.32;;;;;;;16.37;54.98;100110.75;5075210;28;20035;-81
2021/09/08 06:01:29;;;;;;;13.18;5.38;;;;;;;16.43;54.49;100101.31;5073668;28;20068;-82
2021/09/08 06:03:55;;;;;;;11.55;5.32;;;;;;;16.47;53.86;100106.25;5041282;28;20071;-83
2021/09/08 06:06:20;;;;;;;14.80;4.78;;;;;;;16.78;53.10;100110.47;5075010;28;20036;-80
2021/09/08 06:08:46;;;;;;;21.55;9.38;;;;;;;17.08;52.66;100105.81;5074616;28;20056;-86
2021/09/08 06:11:12;;;;;;;8.55;3.67;;;;;;;17.33;52.49;100106.09;5060721;28;20173;-78
2021/09/08 06:13:39;;;;;;;12.55;4.80;;;;;;;17.81;49.94;100104.00;5075584;28;20065;-85
2021/09/08 06:16:04;;;;;;;9.60;3.70;;;;;;;18.37;49.53;100104.63;5092181;28;20055;-81
2021/09/08 06:18:30;;;;;;;9.13;3.80;;;;;;;18.24;49.07;100105.03;5075088;28;20048;-81
2021/09/08 06:20:56;;;;;;;6.78;3.60;;;;;;;18.23;48.48;100104.19;5059024;28;20032;-78
2021/09/08 06:23:22;;;;;;;10.30;3.55;;;;;;;18.63;48.07;100101.03;5058188;28;20044;-84
2021/09/08 06:25:48;;;;;;;5.20;3.13;;;;;;;18.79;47.17;100102.97;5060749;28;20044;-78
2021/09/08 06:28:14;;;;;;;7.43;3.60;;;;;;;18.89;46.80;100100.97;5075423;28;20048;-81
2021/09/08 06:30:40;;;;;;;6.53;3.65;;;;;;;19.08;45.98;100102.59;5057668;28;20044;-79
2021/09/08 06:33:09;;;;;;;4.85;3.05;;;;;;;19.22;46.43;100103.81;5074430;28;20097;-84
2021/09/08 06:35:37;;;;;;;12.85;3.95;;;;;;;19.62;45.42;100093.31;5057570;28;20059;-80
2021/09/08 06:38:03;;;;;;;10.30;3.50;;;;;;;19.78;44.37;100103.19;5041451;28;20032;-83
2021/09/08 06:40:29;;;;;;;9.00;3.47;;;;;;;19.17;44.98;100095.41;5059865;28;20040;-82
2021/09/08 06:42:55;;;;;;;8.32;3.50;;;;;;;19.31;44.78;100093.94;5057689;28;20416;-84
2021/09/08 06:45:22;;;;;;;11.05;3.75;;;;;;;19.47;43.69;100091.25;5060586;28;20083;-82
2021/09/08 06:47:48;;;;;;;11.48;4.80;;;;;;;20.93;41.76;100086.00;5057137;28;20044;-74
2021/09/08 06:50:14;;;;;;;9.70;4.30;;;;;;;22.71;37.88;100079.44;5091869;28;20408;-81
2021/09/08 06:52:40;;;;;;;8.43;3.53;;;;;;;23.04;36.79;100083.56;5091622;28;20040;-76
2021/09/08 06:55:06;;;;;;;12.60;3.78;;;;;;;22.65;37.33;100080.19;5091850;28;20064;-83
2021/09/08 06:57:32;;;;;;;14.70;4.50;;;;;;;21.72;38.40;100085.84;5073701;28;20050;-79
2021/09/08 06:59:58;;;;;;;11.82;3.83;;;;;;;20.55;40.44;100083.09;5040769;28;20130;-77
2021/09/08 07:02:23;;;;;;;9.07;3.67;;;;;;;19.59;42.09;100082.88;5057670;28;20093;-79
2021/09/08 07:04:49;;;;;;;11.18;3.58;;;;;;;19.38;43.07;100094.94;5074049;28;20538;-81
2021/09/08 07:07:18;;;;;;;15.20;5.22;;;;;;;19.04;43.81;100085.13;5074791;28;20036;-82
2021/09/08 07:09:44;;;;;;;17.77;8.93;;;;;;;18.83;44.73;100082.88;5056602;28;20047;-82
2021/09/08 07:12:10;;;;;;;9.45;4.28;;;;;;;18.29;44.82;100086.63;5073844;28;20416;-78
2021/09/08 07:14:36;;;;;;;9.02;3.55;;;;;;;18.02;45.56;100093.00;5058535;28;20091;-78
2021/09/08 07:17:02;;;;;;;14.15;4.63;;;;;;;17.75;46.27;100078.72;5092557;28;20051;-79
2021/09/08 07:19:28;;;;;;;16.40;6.35;;;;;;;17.73;46.58;100080.69;5075377;28;20097;-85
2021/09/08 07:21:54;;;;;;;7.53;3.75;;;;;;;17.54;46.48;100093.25;5059759;28;20076;-78
2021/09/08 07:24:20;;;;;;;13.20;4.25;;;;;;;17.28;46.86;100086.00;5041205;28;20427;-84
2021/09/08 07:26:46;;;;;;;5.60;3.08;;;;;;;17.43;46.65;100093.47;5057888;28;20048;-79
2021/09/08 07:29:12;;;;;;;6.47;3.30;;;;;;;17.16;47.30;100079.19;5096605;28;20040;-86
2021/09/08 07:31:38;;;;;;;10.68;4.43;;;;;;;16.93;48.10;100079.59;5047399;28;20036;-80
2021/09/08 07:34:04;;;;;;;11.98;3.83;;;;;;;16.93;49.05;100068.91;5080217;28;20082;-80
2021/09/08 07:36:30;;;;;;;7.80;2.88;;;;;;;16.66;48.84;100069.75;5061095;28;20422;-85
2021/09/08 07:38:56;;;;;;;11.10;3.60;;;;;;;16.47;48.96;100079.53;5077918;28;20134;-82
2021/09/08 07:41:22;;;;;;;7.65;3.22;;;;;;;16.30;49.83;100075.78;5101928;28;20043;-82
2021/09/08 07:43:49;;;;;;;8.88;3.22;;;;;;;16.49;50.09;100066.88;5052767;28;20055;-82
2021/09/08 07:46:15;;;;;;;13.05;3.70;;;;;;;16.84;49.96;100060.94;5065741;28;20099;-83
2021/09/08 07:48:42;;;;;;;14.25;5.95;;;;;;;16.93;49.04;100063.56;5081477;28;20070;-82
2021/09/08 07:51:08;;;;;;;13.18;6.03;;;;;;;17.12;48.44;100061.75;5061967;28;20046;-84
2021/09/08 07:53:34;;;;;;;16.48;7.35;;;;;;;17.16;48.19;100064.97;5080103;28;20055;-82
2021/09/08 07:56:01;;;;;;;20.13;10.68;;;;;;;17.02;48.40;100061.00;5076690;28;20036;-81
2021/09/08 07:58:27;;;;;;;17.23;7.95;;;;;;;16.91;48.48;100060.22;5093863;28;20036;-83
2021/09/08 08:00:53;;;;;;;24.52;11.48;;;;;;;17.08;48.34;100061.22;5077080;28;20503;-83
2021/09/08 08:03:22;;;;;;;15.20;6.43;;;;;;;16.93;48.75;100058.22;5077253;28;20380;-81
2021/09/08 08:05:47;;;;;;;14.75;7.10;;;;;;;16.94;49.09;100053.75;5044836;28;20546;-83
2021/09/08 08:08:14;;;;;;;14.35;4.22;;;;;;;16.68;49.26;100057.06;5081011;28;20108;-85
2021/09/08 08:10:42;;;;;;;17.35;7.72;;;;;;;16.69;49.72;100061.44;5047187;28;20497;-82
2021/09/08 08:13:08;;;;;;;36.97;13.45;;;;;;;16.60;50.58;100060.50;5061713;28;20036;-83
2021/09/08 08:15:34;;;;;;;9.90;4.90;;;;;;;16.50;49.98;100055.19;5064267;28;20366;-81
2021/09/08 08:18:00;;;;;;;12.32;4.20;;;;;;;16.54;49.78;100062.94;5045038;28;20493;-83
2021/09/08 08:20:26;;;;;;;13.23;5.85;;;;;;;16.65;50.03;100057.41;5079840;28;20043;-81
2021/09/08 08:22:52;;;;;;;7.65;3.17;;;;;;;16.79;49.73;100050.69;5049521;28;20143;-82
2021/09/08 08:25:20;;;;;;;;;;;;;;;17.32;48.59;100059.81;5054323;28;20104;-83
2021/09/08 08:27:47;;;;;;;8.30;3.35;;;;;;;17.54;47.84;100055.81;5061530;28;20326;-81
2021/09/08 08:30:15;;;;;;;8.40;3.08;;;;;;;17.44;47.70;100055.06;5058100;28;20140;-79
2021/09/08 08:32:41;;;;;;;9.60;3.15;;;;;;;16.96;48.50;100057.94;5040791;28;20120;-81
2021/09/08 08:35:08;;;;;;;10.00;3.35;;;;;;;16.51;49.00;100058.72;5008840;28;20040;-81
2021/09/08 08:37:36;;;;;;;7.05;2.75;;;;;;;16.55;48.82;100057.44;5026230;28;20088;-85
2021/09/08 08:40:04;;;;;;;10.23;3.70;;;;;;;16.43;48.92;100061.28;5042345;28;20040;-83
2021/09/08 08:42:31;;;;;;;14.75;6.40;;;;;;;16.44;48.76;100062.97;5040446;28;20049;-82
2021/09/08 08:45:04;;;;;;;17.30;6.78;;;;;;;16.29;48.92;100063.44;5010352;28;20108;-81
2021/09/08 08:47:38;;;;;;;;;;;;;;;16.17;49.55;100060.13;5041251;28;20513;-84
2021/09/08 08:50:26;;;;;;;29.77;13.20;;;;;;;15.98;49.62;100065.50;5059123;28;19924;-82
2021/09/08 08:52:56;;;;;;;12.93;6.78;;;;;;;16.04;49.70;100061.38;5010012;28;20510;-82
2021/09/08 08:55:28;;;;;;;9.10;3.88;;;;;;;15.92;50.50;100058.88;5051584;28;20032;-82
2021/09/08 08:57:55;;;;;;;9.13;4.13;;;;;;;16.09;50.19;100057.31;5047887;28;20048;-83
2021/09/08 09:00:32;;;;;;;14.35;5.30;;;;;;;16.45;49.34;100053.97;5054022;28;20116;-82
2021/09/08 09:03:00;;;;;;;15.48;5.13;;;;;;;17.07;48.05;100056.03;5028704;28;20068;-82
2021/09/08 09:05:45;;;;;;;;;;;;;;;17.53;46.90;100047.94;4985270;28;20123;-86
2021/09/08 09:08:12;;;;;;;17.02;5.25;;;;;;;17.43;46.74;100051.56;5024622;28;19950;-83
2021/09/08 09:10:39;;;;;;;15.00;5.82;;;;;;;16.79;48.01;100050.69;5020867;28;20137;-85
2021/09/08 09:13:08;;;;;;;12.93;4.97;;;;;;;16.77;48.18;100047.31;5002777;28;20102;-87
2021/09/08 09:15:34;;;;;;;11.18;4.28;;;;;;;16.37;49.14;100053.84;5013192;28;20049;-86
2021/09/08 09:18:00;;;;;;;11.15;4.32;;;;;;;16.26;49.12;100050.41;4997220;28;20057;-82
2021/09/08 09:20:32;;;;;;;11.27;4.38;;;;;;;15.81;51.15;100051.03;5010452;28;20037;-84
2021/09/08 09:23:01;;;;;;;9.20;4.03;;;;;;;15.83;51.23;100049.09;5023150;28;20178;-80
2021/09/08 09:25:35;;;;;;;9.98;4.43;;;;;;;15.90;50.77;100039.53;4998267;28;20041;-82
2021/09/08 09:28:04;;;;;;;9.05;4.47;;;;;;;15.80;51.25;100044.88;5030317;28;20053;-79
2021/09/08 09:30:34;;;;;;;15.23;5.50;;;;;;;15.58;52.22;100045.19;5001427;28;20045;-83
2021/09/08 09:33:01;;;;;;;8.40;3.40;;;;;;;15.41;52.03;100042.22;5045512;28;20041;-81
2021/09/08 09:35:32;;;;;;;9.93;4.93;;;;;;;15.23;52.89;100042.09;5000827;28;20061;-81
2021/09/08 09:38:05;;;;;;;14.70;5.68;;;;;;;15.04;53.75;100037.56;4992530;28;20066;-82
2021/09/08 09:40:37;;;;;;;13.48;4.72;;;;;;;14.89;54.65;100039.78;4997457;28;20451;-85
2021/09/08 09:43:11;;;;;;;22.95;8.32;;;;;;;14.89;55.20;100029.13;4996418;28;20050;-84
2021/09/08 09:45:47;;;;;;;10.32;3.90;;;;;;;14.81;55.18;100034.31;4985184;28;20049;-82
2021/09/08 09:48:14;;;;;;;12.18;4.72;;;;;;;14.68;55.45;100030.09;4996433;28;20069;-81
2021/09/08 09:50:46;;;;;;;10.65;4.28;;;;;;;14.74;56.23;100027.84;5001903;28;20080;-85
2021/09/08 09:53:12;;;;;;;7.85;3.95;;;;;;;14.59;56.63;100020.19;4976021;28;20046;-83
2021/09/08 09:55:38;;;;;;;8.50;4.45;;;;;;;14.58;56.87;100021.22;5002889;28;20052;-79
2021/09/08 09:58:04;;;;;;;10.27;3.65;;;;;;;14.53;56.86;100028.75;5006042;28;20052;-83
2021/09/08 10:00:30;;;;;;;9.65;4.20;;;;;;;14.58;56.80;100015.88;5029484;28;20062;-83
2021/09/08 10:02:56;;;;;;;11.45;4.60;;;;;;;14.62;56.42;100022.59;5000372;28;20104;-82
2021/09/08 10:05:26;;;;;;;10.70;4.97;;;;;;;14.72;56.53;100015.50;4987786;28;20050;-83
2021/09/08 10:07:55;;;;;;;9.20;4.25;;;;;;;14.64;56.16;100019.81;4987623;28;20042;-83
2021/09/08 10:10:33;;;;;;;15.80;5.05;;;;;;;14.64;56.15;100007.34;4997293;28;20091;-85
2021/09/08 10:13:06;;;;;;;9.38;3.92;;;;;;;14.60;55.82;100000.59;5002883;28;20060;-84
2021/09/08 10:15:35;;;;;;;7.10;3.65;;;;;;;14.57;55.94;100006.22;5040727;28;20047;-84
2021/09/08 10:18:10;;;;;;;11.07;3.78;;;;;;;14.60;55.70;100000.59;5006591;28;20047;-85
2021/09/08 10:20:42;;;;;;;9.02;4.03;;;;;;;14.57;55.66;99998.22;5025061;28;20047;-84
2021/09/08 10:26:16;;;;;;;10.10;4.27;;;;;;;14.51;55.76;99999.59;5002913;28;20046;-83
2021/09/08 10:28:44;;;;;;;11.68;4.15;;;;;;;14.64;55.75;99987.84;5015481;28;20287;-82
2021/09/08 10:31:13;;;;;;;10.48;4.60;;;;;;;14.67;55.74;99996.44;4996644;28;20166;-80
2021/09/08 10:33:40;;;;;;;11.10;3.78;;;;;;;14.59;55.43;99984.78;4988274;28;20041;-81
2021/09/08 10:36:10;;;;;;;9.18;3.20;;;;;;;14.55;54.95;99992.19;4975391;28;20101;-81
2021/09/08 10:38:36;;;;;;;6.72;2.78;;;;;;;14.67;54.34;99976.97;4980688;28;20042;-81
2021/09/08 10:41:04;;;;;;;6.75;3.25;;;;;;;14.73;54.29;99976.44;4981407;28;20100;-83
2021/09/08 10:43:34;;;;;;;7.95;3.50;;;;;;;14.73;54.38;99968.44;4998440;28;20513;-83
2021/09/08 10:46:04;;;;;;;8.10;3.00;;;;;;;14.78;54.40;99962.69;4985305;28;20038;-86
2021/09/08 10:48:43;;;;;;;9.40;3.55;;;;;;;14.81;54.57;99965.91;4994208;28;20525;-88
2021/09/08 10:51:20;;;;;;;9.40;3.88;;;;;;;14.81;54.54;99973.06;5024974;28;20044;-85
2021/09/08 10:54:07;;;;;;;8.63;3.50;;;;;;;14.76;54.72;99960.16;5013454;28;20044;-83
2021/09/08 10:56:46;;;;;;;7.00;3.70;;;;;;;14.83;55.05;99949.81;5055059;28;20295;-85
2021/09/08 10:59:15;;;;;;;8.30;4.07;;;;;;;14.96;54.74;99947.69;5008002;28;20041;-85
2021/09/08 11:01:43;;;;;;;11.23;5.32;;;;;;;15.00;54.36;99941.13;5046672;28;20037;-86
2021/09/08 11:04:19;;;;;;;15.38;5.57;;;;;;;14.96;54.21;99947.69;5044407;28;20418;-84
2021/09/08 11:06:52;;;;;;;27.27;9.80;;;;;;;14.83;54.62;99936.50;5022809;28;20494;-84
2021/09/08 11:09:19;;;;;;;11.73;4.07;;;;;;;14.78;54.90;99933.41;5008342;28;20072;-83
2021/09/08 11:11:47;;;;;;;7.18;3.55;;;;;;;14.71;55.29;99939.28;4985592;28;20230;-84
2021/09/08 11:14:15;;;;;;;15.88;3.78;;;;;;;14.66;55.48;99938.84;5002603;28;20054;-81
2021/09/08 11:16:42;;;;;;;7.35;3.45;;;;;;;14.63;55.67;99933.78;5002350;28;20064;-80
2021/09/08 11:19:12;;;;;;;13.00;3.70;;;;;;;14.70;56.50;99940.28;4966983;28;20137;-80
2021/09/08 11:21:38;;;;;;;10.25;3.88;;;;;;;14.90;55.96;99929.63;5000076;28;20540;-80
2021/09/08 11:24:09;;;;;;;9.57;3.60;;;;;;;14.94;55.44;99925.72;5001328;28;20046;-80
2021/09/08 11:26:40;;;;;;;12.00;4.25;;;;;;;14.94;56.00;99935.50;5017503;28;20040;-79